createdAt,value
2023-05-22T00:00:10.606Z,16.65
2023-05-22T00:03:13.115Z,16.52
2023-05-22T00:06:18.442Z,16.64
2023-05-22T00:09:20.922Z,16.42
2023-05-22T00:12:23.836Z,16.44
2023-05-22T00:15:26.420Z,16.54
2023-05-22T00:18:29.297Z,16.42
2023-05-22T00:21:35.123Z,16.37
2023-05-22T00:24:38.791Z,16.29
2023-05-22T00:27:41.401Z,16.25
2023-05-22T00:30:44.397Z,16.25
2023-05-22T00:33:46.936Z,16.22
2023-05-22T00:36:49.849Z,16.20
2023-05-22T00:39:52.479Z,16.19
2023-05-22T00:42:55.501Z,16.19
2023-05-22T00:45:58.021Z,16.19
2023-05-22T00:49:02.241Z,16.12
2023-05-22T00:52:05.151Z,16.17
2023-05-22T00:55:09.017Z,16.15
2023-05-22T00:58:15.241Z,15.96
2023-05-22T01:01:18.259Z,16.04
2023-05-22T01:04:21.306Z,15.98
2023-05-22T01:07:24.725Z,15.93
2023-05-22T01:10:28.480Z,15.87
2023-05-22T01:13:55.487Z,15.83
2023-05-22T01:17:28.937Z,15.78
2023-05-22T01:20:39.310Z,15.77
2023-05-22T01:23:54.292Z,15.69
2023-05-22T01:27:15.898Z,15.61
2023-05-22T01:30:56.202Z,15.56
2023-05-22T01:34:01.306Z,15.58
2023-05-22T01:37:05.018Z,15.58
2023-05-22T01:40:08.566Z,15.48
2023-05-22T01:43:15.042Z,15.42
2023-05-22T01:46:18.132Z,15.42
2023-05-22T01:49:20.892Z,15.54
2023-05-22T01:52:38.239Z,15.56
2023-05-22T01:55:48.260Z,15.62
2023-05-22T01:59:06.714Z,15.58
2023-05-22T02:02:11.205Z,15.51
2023-05-22T02:05:18.434Z,15.53
2023-05-22T02:08:21.969Z,15.48
2023-05-22T02:11:27.076Z,15.42
2023-05-22T02:14:30.214Z,15.41
2023-05-22T02:17:40.407Z,15.32
2023-05-22T02:20:43.435Z,15.27
2023-05-22T02:23:46.312Z,15.31
2023-05-22T02:26:48.964Z,15.31
2023-05-22T02:29:53.039Z,15.36
2023-05-22T02:32:57.566Z,15.33
2023-05-22T02:36:00.514Z,15.31
2023-05-22T02:39:03.299Z,15.28
2023-05-22T02:42:06.622Z,15.25
2023-05-22T02:45:09.902Z,15.20
2023-05-22T02:48:13.272Z,15.10
2023-05-22T02:51:16.292Z,15.02
2023-05-22T02:54:19.176Z,14.93
2023-05-22T02:57:21.808Z,14.88
2023-05-22T03:00:25.039Z,14.85
2023-05-22T03:03:29.536Z,14.88
2023-05-22T03:06:32.708Z,14.87
2023-05-22T03:09:35.956Z,14.84
2023-05-22T03:12:39.044Z,14.83
2023-05-22T03:15:41.712Z,14.78
2023-05-22T03:18:45.076Z,14.77
2023-05-22T03:21:50.066Z,14.73
2023-05-22T03:24:53.555Z,14.63
2023-05-22T03:27:56.163Z,14.66
2023-05-22T03:31:01.164Z,14.68
2023-05-22T03:34:05.965Z,14.71
2023-05-22T03:37:09.404Z,14.73
2023-05-22T03:40:12.717Z,14.73
2023-05-22T03:43:15.587Z,14.72
2023-05-22T03:46:18.431Z,14.78
2023-05-22T03:49:21.462Z,14.77
2023-05-22T03:52:24.059Z,14.77
2023-05-22T03:55:26.963Z,14.80
2023-05-22T03:58:29.636Z,14.84
2023-05-22T04:01:32.615Z,14.88
2023-05-22T04:04:38.398Z,14.99
2023-05-22T04:07:41.371Z,15.08
2023-05-22T04:10:46.687Z,14.75
2023-05-22T04:13:50.179Z,15.20
2023-05-22T04:16:53.093Z,15.26
2023-05-22T04:19:58.179Z,15.39
2023-05-22T04:23:01.775Z,15.51
2023-05-22T04:26:04.334Z,15.65
2023-05-22T04:29:10.419Z,15.72
2023-05-22T04:32:18.443Z,15.78
2023-05-22T04:35:21.278Z,15.83
2023-05-22T04:38:26.407Z,15.88
2023-05-22T04:41:29.407Z,15.89
2023-05-22T04:44:34.509Z,15.85
2023-05-22T04:47:38.457Z,15.71
2023-05-22T04:50:41.623Z,15.80
2023-05-22T04:53:46.320Z,15.77
2023-05-22T04:56:50.083Z,15.78
2023-05-22T04:59:54.018Z,16.07
2023-05-22T05:02:58.122Z,16.21
2023-05-22T05:06:01.372Z,16.34
2023-05-22T05:09:04.864Z,16.48
2023-05-22T05:12:07.931Z,16.48
2023-05-22T05:15:11.325Z,16.59
2023-05-22T05:18:14.290Z,16.65
2023-05-22T05:21:18.522Z,16.62
2023-05-22T05:24:21.511Z,16.82
2023-05-22T05:27:24.727Z,16.89
2023-05-22T05:30:30.090Z,16.88
2023-05-22T05:33:33.639Z,16.88
2023-05-22T05:36:37.968Z,16.89
2023-05-22T05:39:40.874Z,16.98
2023-05-22T05:42:43.966Z,17.01
2023-05-22T05:45:47.183Z,16.99
2023-05-22T05:48:52.553Z,16.99
2023-05-22T05:51:55.525Z,17.08
2023-05-22T05:55:00.854Z,17.12
2023-05-22T05:58:03.730Z,17.16
2023-05-22T06:01:11.864Z,17.20
2023-05-22T06:04:15.058Z,17.19
2023-05-22T06:07:21.010Z,17.20
2023-05-22T06:10:25.046Z,17.29
2023-05-22T06:13:28.186Z,17.36
2023-05-22T06:16:31.456Z,17.36
2023-05-22T06:19:34.338Z,17.41
2023-05-22T06:22:37.527Z,17.49
2023-05-22T06:25:40.492Z,17.65
2023-05-22T06:28:44.206Z,17.79
2023-05-22T06:31:47.596Z,17.77
2023-05-22T06:34:52.030Z,17.82
2023-05-22T06:37:55.551Z,17.77
2023-05-22T06:40:58.893Z,17.72
2023-05-22T06:44:02.367Z,17.69
2023-05-22T06:47:05.964Z,17.83
2023-05-22T06:50:10.792Z,17.85
2023-05-22T06:53:13.845Z,17.91
2023-05-22T06:56:16.537Z,17.95
2023-05-22T06:59:20.669Z,17.96
2023-05-22T07:02:24.811Z,17.92
2023-05-22T07:05:28.929Z,17.98
2023-05-22T07:08:32.199Z,18.36
2023-05-22T07:11:36.010Z,18.47
2023-05-22T07:14:38.829Z,18.74
2023-05-22T07:17:41.924Z,19.12
2023-05-22T07:20:45.559Z,19.39
2023-05-22T07:23:48.750Z,19.59
2023-05-22T07:26:51.351Z,19.90
2023-05-22T07:29:54.654Z,20.19
2023-05-22T07:32:57.410Z,20.46
2023-05-22T07:36:01.049Z,20.78
2023-05-22T07:39:05.389Z,20.95
2023-05-22T07:42:08.824Z,21.00
2023-05-22T07:45:12.256Z,21.18
2023-05-22T07:48:16.012Z,21.10
2023-05-22T07:51:20.631Z,21.17
2023-05-22T07:54:25.290Z,21.17
2023-05-22T07:57:29.673Z,21.19
2023-05-22T08:00:35.917Z,21.52
2023-05-22T08:03:39.029Z,21.43
2023-05-22T08:06:43.854Z,21.55
2023-05-22T08:09:46.923Z,21.89
2023-05-22T08:12:49.565Z,22.37
2023-05-22T08:16:00.110Z,22.29
2023-05-22T08:19:03.721Z,22.38
2023-05-22T08:22:09.265Z,22.72
2023-05-22T08:25:11.790Z,22.87
2023-05-22T08:28:14.680Z,23.21
2023-05-22T08:31:17.258Z,23.22
2023-05-22T08:34:20.117Z,23.40
2023-05-22T08:37:22.711Z,23.44
2023-05-22T08:40:38.249Z,23.77
2023-05-22T08:43:41.732Z,23.89
2023-05-22T08:46:46.124Z,24.39
2023-05-22T08:49:51.714Z,24.52
2023-05-22T08:52:59.172Z,24.59
2023-05-22T08:56:03.676Z,24.79
2023-05-22T08:59:06.773Z,24.32
2023-05-22T09:02:09.963Z,24.53
2023-05-22T09:05:13.293Z,24.45
2023-05-22T09:08:20.918Z,24.55
2023-05-22T09:11:26.186Z,24.94
2023-05-22T09:14:28.725Z,25.48
2023-05-22T09:17:31.710Z,25.83
2023-05-22T09:20:39.193Z,26.34
2023-05-22T09:23:42.493Z,26.64
2023-05-22T09:26:45.003Z,26.22
2023-05-22T09:29:52.460Z,26.56
2023-05-22T09:32:55.256Z,26.16
2023-05-22T09:35:58.213Z,26.62
2023-05-22T09:39:01.856Z,26.98
2023-05-22T09:42:05.190Z,27.28
2023-05-22T09:45:08.846Z,27.26
2023-05-22T09:48:12.722Z,27.40
2023-05-22T09:51:16.577Z,27.35
2023-05-22T09:54:20.561Z,27.45
2023-05-22T09:57:26.447Z,27.78
2023-05-22T10:00:29.334Z,27.91
2023-05-22T10:03:33.765Z,27.95
2023-05-22T10:06:37.156Z,28.23
2023-05-22T10:09:40.981Z,28.72
2023-05-22T10:12:46.646Z,28.16
2023-05-22T10:15:50.318Z,28.34
2023-05-22T10:18:53.967Z,28.65
2023-05-22T10:21:58.307Z,28.75
2023-05-22T10:25:01.201Z,29.06
2023-05-22T10:28:04.219Z,28.99
2023-05-22T10:31:12.690Z,29.22
2023-05-22T10:34:31.470Z,29.03
2023-05-22T10:37:49.506Z,29.64
2023-05-22T10:40:52.869Z,30.01
2023-05-22T10:43:56.719Z,29.71
2023-05-22T10:47:10.314Z,29.30
2023-05-22T10:50:13.050Z,29.06
2023-05-22T10:53:22.296Z,29.00
2023-05-22T10:56:32.981Z,28.86
2023-05-22T10:59:35.888Z,28.28
2023-05-22T11:02:41.021Z,28.70
2023-05-22T11:05:52.684Z,28.99
2023-05-22T11:08:56.646Z,29.09
2023-05-22T11:12:21.472Z,28.76
2023-05-22T11:15:31.406Z,29.22
2023-05-22T11:18:34.570Z,29.56
2023-05-22T11:21:44.179Z,29.17
2023-05-22T11:24:47.142Z,29.13
2023-05-22T11:27:49.873Z,29.04
2023-05-22T11:30:54.127Z,29.38
2023-05-22T11:33:56.863Z,29.94
2023-05-22T11:37:00.208Z,29.82
2023-05-22T11:40:05.794Z,30.21
2023-05-22T11:43:08.770Z,30.57
2023-05-22T11:46:12.266Z,30.17
2023-05-22T11:49:15.276Z,30.61
2023-05-22T11:52:17.925Z,30.62
2023-05-22T11:55:20.804Z,30.75
2023-05-22T11:58:27.764Z,30.77
2023-05-22T12:01:30.919Z,31.10
2023-05-22T12:04:33.996Z,31.19
2023-05-22T12:07:36.604Z,30.35
2023-05-22T12:10:47.168Z,31.12
2023-05-22T12:13:52.134Z,31.28
2023-05-22T12:16:55.480Z,31.30
2023-05-22T12:19:58.130Z,30.48
2023-05-22T12:23:01.173Z,29.81
2023-05-22T12:26:10.148Z,30.36
2023-05-22T12:29:13.377Z,30.89
2023-05-22T12:32:18.317Z,31.03
2023-05-22T12:35:22.654Z,30.87
2023-05-22T12:38:26.750Z,31.19
2023-05-22T12:41:29.593Z,31.08
2023-05-22T12:44:32.153Z,31.22
2023-05-22T12:47:35.037Z,31.07
2023-05-22T12:50:37.959Z,30.91
2023-05-22T12:53:40.984Z,30.77
2023-05-22T12:56:43.526Z,30.94
2023-05-22T12:59:46.460Z,31.23
2023-05-22T13:02:49.295Z,31.36
2023-05-22T13:05:52.385Z,31.34
2023-05-22T13:08:55.019Z,30.36
2023-05-22T13:11:58.053Z,30.40
2023-05-22T13:15:01.241Z,30.26
2023-05-22T13:18:04.339Z,30.45
2023-05-22T13:21:06.976Z,30.36
2023-05-22T13:24:09.993Z,30.03
2023-05-22T13:27:12.569Z,30.06
2023-05-22T13:30:16.159Z,30.21
2023-05-22T13:33:18.755Z,29.88
2023-05-22T13:36:21.848Z,30.04
2023-05-22T13:39:24.495Z,29.70
2023-05-22T13:42:27.413Z,29.37
2023-05-22T13:45:31.033Z,29.38
2023-05-22T13:48:33.958Z,29.57
2023-05-22T13:51:36.595Z,29.53
2023-05-22T13:54:39.462Z,29.57
2023-05-22T13:57:42.160Z,29.20
2023-05-22T14:00:45.146Z,28.48
2023-05-22T14:03:48.002Z,28.80
2023-05-22T14:06:50.939Z,28.82
2023-05-22T14:09:53.839Z,28.67
2023-05-22T14:12:56.398Z,28.88
2023-05-22T14:15:59.265Z,28.08
2023-05-22T14:19:01.917Z,28.12
2023-05-22T14:22:05.022Z,27.81
2023-05-22T14:25:07.893Z,27.69
2023-05-22T14:28:14.191Z,27.26
2023-05-22T14:31:17.222Z,27.35
2023-05-22T14:34:20.631Z,27.14
2023-05-22T14:37:23.292Z,27.19
2023-05-22T14:40:26.081Z,27.26
2023-05-22T14:43:28.717Z,27.04
2023-05-22T14:46:31.654Z,26.80
2023-05-22T14:49:34.293Z,27.02
2023-05-22T14:52:37.446Z,27.15
2023-05-22T14:55:40.123Z,27.23
2023-05-22T14:58:43.292Z,27.22
2023-05-22T15:01:50.150Z,27.19
2023-05-22T15:04:53.228Z,27.26
2023-05-22T15:07:58.697Z,27.16
2023-05-22T15:11:01.531Z,27.06
2023-05-22T15:14:04.098Z,27.07
2023-05-22T15:17:07.031Z,27.03
2023-05-22T15:20:10.553Z,26.96
2023-05-22T15:23:13.769Z,26.99
2023-05-22T15:26:16.377Z,26.99
2023-05-22T15:29:19.241Z,26.87
2023-05-22T15:32:21.974Z,26.57
2023-05-22T15:35:25.368Z,26.44
2023-05-22T15:38:28.751Z,26.25
2023-05-22T15:41:31.769Z,26.13
2023-05-22T15:44:34.292Z,26.03
2023-05-22T15:47:37.232Z,25.90
2023-05-22T15:50:39.833Z,25.89
2023-05-22T15:53:42.774Z,25.85
2023-05-22T15:56:45.474Z,25.76
2023-05-22T15:59:50.675Z,25.72
2023-05-22T16:02:53.779Z,25.58
2023-05-22T16:05:56.675Z,25.44
2023-05-22T16:08:59.271Z,25.30
2023-05-22T16:12:02.969Z,25.28
2023-05-22T16:15:06.934Z,25.22
2023-05-22T16:18:11.237Z,25.28
2023-05-22T16:21:13.752Z,25.17
2023-05-22T16:24:16.678Z,25.11
2023-05-22T16:27:19.176Z,25.00
2023-05-22T16:30:22.249Z,24.96
2023-05-22T16:33:25.034Z,24.87
2023-05-22T16:36:28.037Z,24.81
2023-05-22T16:39:30.963Z,24.71
2023-05-22T16:42:35.297Z,24.67
2023-05-22T16:45:38.261Z,24.55
2023-05-22T16:48:41.241Z,24.38
2023-05-22T16:51:43.792Z,24.35
2023-05-22T16:54:46.840Z,24.20
2023-05-22T16:57:49.532Z,24.12
2023-05-22T17:00:53.126Z,24.03
2023-05-22T17:03:55.990Z,23.90
2023-05-22T17:06:58.959Z,23.79
2023-05-22T17:10:01.673Z,23.67
2023-05-22T17:13:04.902Z,23.50
2023-05-22T17:16:07.503Z,23.19
2023-05-22T17:19:10.584Z,23.02
2023-05-22T17:22:13.189Z,23.01
2023-05-22T17:25:16.222Z,22.86
2023-05-22T17:28:18.897Z,22.84
2023-05-22T17:31:22.861Z,22.75
2023-05-22T17:34:25.409Z,22.63
2023-05-22T17:37:28.232Z,22.48
2023-05-22T17:43:38.270Z,22.28
2023-05-22T17:46:41.341Z,22.20
2023-05-22T17:49:44.346Z,22.17
2023-05-22T17:52:46.906Z,22.13
2023-05-22T17:55:52.318Z,22.01
2023-05-22T17:58:55.205Z,21.87
2023-05-22T18:01:58.109Z,21.77
2023-05-22T18:05:01.143Z,21.67
2023-05-22T18:08:03.789Z,21.57
2023-05-22T18:11:06.875Z,21.47
2023-05-22T18:14:09.481Z,21.41
2023-05-22T18:17:12.576Z,21.33
2023-05-22T18:20:16.792Z,21.27
2023-05-22T18:23:20.666Z,21.15
2023-05-22T18:26:23.326Z,21.06
2023-05-22T18:29:26.417Z,20.99
2023-05-22T18:32:29.159Z,20.89
2023-05-22T18:35:32.021Z,20.64
2023-05-22T18:38:34.552Z,20.63
2023-05-22T18:41:37.498Z,20.50
2023-05-22T18:44:40.620Z,20.41
2023-05-22T18:47:43.626Z,20.31
2023-05-22T18:50:46.378Z,20.32
2023-05-22T18:53:51.580Z,20.33
2023-05-22T18:56:54.268Z,20.36
2023-05-22T18:59:58.810Z,20.33
2023-05-22T19:03:02.090Z,20.26
2023-05-22T19:06:05.257Z,20.19
2023-05-22T19:09:11.994Z,20.18
2023-05-22T19:12:15.066Z,20.12
2023-05-22T19:15:17.679Z,20.05
2023-05-22T19:18:20.797Z,19.92
2023-05-22T19:21:23.401Z,19.86
2023-05-22T19:24:26.690Z,19.76
2023-05-22T19:27:29.287Z,19.69
2023-05-22T19:30:32.515Z,19.57
2023-05-22T19:33:35.093Z,19.52
2023-05-22T19:36:38.076Z,19.55
2023-05-22T19:39:41.180Z,19.52
2023-05-22T19:42:44.243Z,19.48
2023-05-22T19:45:47.178Z,19.55
2023-05-22T19:48:50.538Z,19.58
2023-05-22T19:51:56.004Z,19.57
2023-05-22T19:54:59.360Z,19.52
2023-05-22T19:58:02.076Z,19.55
2023-05-22T20:01:05.337Z,19.52
2023-05-22T20:04:08.305Z,19.51
2023-05-22T20:07:11.010Z,19.49
2023-05-22T20:10:14.531Z,19.41
2023-05-22T20:13:17.614Z,19.21
2023-05-22T20:16:20.736Z,19.25
2023-05-22T20:19:24.429Z,19.21
2023-05-22T20:22:27.978Z,19.18
2023-05-22T20:25:30.731Z,19.19
2023-05-22T20:28:33.732Z,19.18
2023-05-22T20:31:36.420Z,19.16
2023-05-22T20:34:40.106Z,19.14
2023-05-22T20:37:42.826Z,19.12
2023-05-22T20:40:47.913Z,19.12
2023-05-22T20:43:50.537Z,19.09
2023-05-22T20:46:54.045Z,19.05
2023-05-22T20:49:56.805Z,19.02
2023-05-22T20:53:00.757Z,18.95
2023-05-22T20:56:03.529Z,18.95
2023-05-22T20:59:06.347Z,18.93
2023-05-22T21:02:09.318Z,18.91
2023-05-22T21:05:12.188Z,18.91
2023-05-22T21:08:15.018Z,18.96
2023-05-22T21:11:18.173Z,18.93
2023-05-22T21:14:20.700Z,18.91
2023-05-22T21:17:24.674Z,18.86
2023-05-22T21:20:27.631Z,18.80
2023-05-22T21:23:30.583Z,18.78
2023-05-22T21:26:33.409Z,18.83
2023-05-22T21:29:36.429Z,18.84
2023-05-22T21:32:39.159Z,18.86
2023-05-22T21:35:42.269Z,18.85
2023-05-22T21:38:45.290Z,18.79
2023-05-22T21:41:49.864Z,18.75
2023-05-22T21:44:53.014Z,18.69
2023-05-22T21:47:56.166Z,18.57
2023-05-22T21:50:58.871Z,18.59
2023-05-22T21:54:01.830Z,18.51
2023-05-22T21:57:04.543Z,18.44
2023-05-22T22:00:08.064Z,18.44
2023-05-22T22:03:10.698Z,18.46
2023-05-22T22:06:13.876Z,18.49
2023-05-22T22:09:16.487Z,18.49
2023-05-22T22:12:19.282Z,18.48
2023-05-22T22:15:22.211Z,18.41
2023-05-22T22:18:25.070Z,18.32
2023-05-22T22:21:28.241Z,18.24
2023-05-22T22:24:31.152Z,18.34
2023-05-22T22:27:34.049Z,18.38
2023-05-22T22:30:36.935Z,18.39
2023-05-22T22:33:39.507Z,18.36
2023-05-22T22:36:42.437Z,18.33
2023-05-22T22:39:44.988Z,18.26
2023-05-22T22:42:47.957Z,18.20
2023-05-22T22:45:50.570Z,18.17
2023-05-22T22:48:54.477Z,18.07
2023-05-22T22:51:57.557Z,17.88
2023-05-22T22:55:00.683Z,17.77
2023-05-22T22:58:03.652Z,17.91
2023-05-22T23:01:06.664Z,17.98
2023-05-22T23:04:09.463Z,18.00
2023-05-22T23:07:12.437Z,17.98
2023-05-22T23:10:16.621Z,18.03
2023-05-22T23:13:19.602Z,17.98
2023-05-22T23:16:22.946Z,17.97
2023-05-22T23:19:26.375Z,17.95
2023-05-22T23:22:29.229Z,17.94
2023-05-22T23:25:32.112Z,17.90
2023-05-22T23:28:34.714Z,17.89
2023-05-22T23:31:37.535Z,17.87
2023-05-22T23:34:42.276Z,17.84
2023-05-22T23:37:45.331Z,17.78
2023-05-22T23:40:47.885Z,17.75
2023-05-22T23:43:50.720Z,17.73
2023-05-22T23:46:53.447Z,17.70
2023-05-22T23:49:56.774Z,17.65
2023-05-22T23:52:59.380Z,17.67
2023-05-22T23:56:02.878Z,17.66
2023-05-22T23:59:05.496Z,17.63
